createdAt,value
2017-07-10T00:02:13.978Z,60.2
2017-07-10T00:04:45.702Z,60.5
2017-07-10T00:07:17.451Z,60.5
2017-07-10T00:09:49.152Z,60.6
2017-07-10T00:12:21.018Z,60.6
2017-07-10T00:14:52.744Z,60.9
2017-07-10T00:17:24.466Z,60.7
2017-07-10T00:19:56.180Z,61.4
2017-07-10T00:22:27.905Z,61.3
2017-07-10T00:24:59.603Z,61.4
2017-07-10T00:27:31.359Z,61.4
2017-07-10T00:30:03.057Z,61.6
2017-07-10T00:32:34.784Z,61.3
2017-07-10T00:35:06.479Z,61.8
2017-07-10T00:37:38.206Z,61.6
2017-07-10T00:40:09.926Z,62.0
2017-07-10T00:42:41.687Z,62.0
2017-07-10T00:45:13.410Z,62.1
2017-07-10T00:47:45.155Z,61.7
2017-07-10T00:50:16.881Z,61.4
2017-07-10T00:52:48.614Z,61.8
2017-07-10T00:55:20.357Z,62.0
2017-07-10T00:57:52.283Z,61.5
2017-07-10T01:00:24.018Z,61.5
2017-07-10T01:02:55.771Z,61.5
2017-07-10T01:05:27.496Z,61.5
2017-07-10T01:07:59.221Z,61.7
2017-07-10T01:10:30.920Z,61.6
2017-07-10T01:13:02.651Z,61.7
2017-07-10T01:15:34.347Z,61.3
2017-07-10T01:18:06.075Z,61.6
2017-07-10T01:20:37.767Z,61.2
2017-07-10T01:23:09.519Z,61.3
2017-07-10T01:25:41.240Z,61.3
2017-07-10T01:28:12.986Z,61.3
2017-07-10T01:30:44.701Z,61.6
2017-07-10T01:33:16.465Z,61.3
2017-07-10T01:35:48.183Z,61.5
2017-07-10T01:38:19.966Z,61.5
2017-07-10T01:40:51.809Z,61.6
2017-07-10T01:43:23.666Z,61.6
2017-07-10T01:45:55.379Z,62.0
2017-07-10T01:48:27.145Z,61.7
2017-07-10T01:50:58.861Z,61.9
2017-07-10T01:53:30.585Z,61.9
2017-07-10T01:56:02.295Z,61.5
2017-07-10T01:58:34.018Z,62.4
2017-07-10T02:01:05.713Z,61.6
2017-07-10T02:03:37.446Z,62.1
2017-07-10T02:06:09.145Z,62.9
2017-07-10T02:08:40.956Z,62.4
2017-07-10T02:11:12.673Z,62.7
2017-07-10T02:13:44.444Z,63.1
2017-07-10T02:16:16.187Z,63.3
2017-07-10T02:18:47.931Z,63.2
2017-07-10T02:21:19.651Z,63.3
2017-07-10T02:23:51.473Z,63.2
2017-07-10T02:26:23.347Z,63.4
2017-07-10T02:28:55.164Z,63.2
2017-07-10T02:31:26.883Z,63.6
2017-07-10T02:33:58.627Z,63.3
2017-07-10T02:36:30.384Z,63.6
2017-07-10T02:39:02.144Z,63.5
2017-07-10T02:41:33.855Z,63.4
2017-07-10T02:44:05.611Z,63.8
2017-07-10T02:46:37.339Z,63.8
2017-07-10T02:49:09.087Z,63.9
2017-07-10T02:51:40.807Z,63.8
2017-07-10T02:54:12.540Z,63.6
2017-07-10T02:56:44.296Z,63.7
2017-07-10T02:59:16.029Z,64.2
2017-07-10T03:01:47.729Z,64.0
2017-07-10T03:04:19.456Z,64.1
2017-07-10T03:06:51.150Z,64.0
2017-07-10T03:09:23.036Z,64.2
2017-07-10T03:11:54.873Z,63.9
2017-07-10T03:14:26.654Z,64.0
2017-07-10T03:16:58.405Z,63.8
2017-07-10T03:19:30.152Z,63.8
2017-07-10T03:22:01.928Z,64.6
2017-07-10T03:24:33.685Z,64.1
2017-07-10T03:27:05.454Z,64.3
2017-07-10T03:29:37.244Z,64.1
2017-07-10T03:32:08.978Z,64.6
2017-07-10T03:34:40.765Z,64.4
2017-07-10T03:37:12.481Z,64.8
2017-07-10T03:39:44.253Z,64.2
2017-07-10T03:42:15.982Z,64.0
2017-07-10T03:44:47.788Z,63.8
2017-07-10T03:47:19.513Z,64.2
2017-07-10T03:49:51.272Z,64.7
2017-07-10T03:52:23.809Z,64.7
2017-07-10T03:54:55.662Z,64.7
2017-07-10T03:57:27.325Z,64.4
2017-07-10T03:59:59.091Z,64.8
2017-07-10T04:02:31.044Z,64.4
2017-07-10T04:05:02.844Z,64.8
2017-07-10T04:07:34.639Z,64.5
2017-07-10T04:10:06.471Z,65.2
2017-07-10T04:12:38.339Z,64.5
2017-07-10T04:15:10.123Z,64.9
2017-07-10T04:17:41.865Z,64.9
2017-07-10T04:20:13.639Z,65.3
2017-07-10T04:22:45.467Z,65.5
2017-07-10T04:25:17.228Z,65.7
2017-07-10T04:27:48.953Z,66.3
2017-07-10T04:30:20.706Z,66.0
2017-07-10T04:32:52.491Z,67.5
2017-07-10T04:35:24.393Z,69.1
2017-07-10T04:37:56.126Z,72.4
2017-07-10T04:40:27.852Z,73.8
2017-07-10T04:42:59.558Z,74.1
2017-07-10T04:45:31.319Z,74.6
2017-07-10T04:48:03.015Z,74.2
2017-07-10T04:50:34.744Z,74.6
2017-07-10T04:53:06.523Z,75.7
2017-07-10T04:55:38.287Z,76.0
2017-07-10T04:58:10.112Z,76.0
2017-07-10T05:00:41.897Z,76.5
2017-07-10T05:03:13.620Z,78.0
2017-07-10T05:05:45.452Z,77.6
2017-07-10T05:08:17.243Z,78.7
2017-07-10T05:10:49.161Z,78.2
2017-07-10T05:13:20.887Z,76.0
2017-07-10T05:15:52.658Z,77.3
2017-07-10T05:18:24.438Z,77.5
2017-07-10T05:20:56.259Z,78.3
2017-07-10T05:23:28.013Z,77.6
2017-07-10T05:25:59.770Z,78.2
2017-07-10T05:28:31.522Z,77.6
2017-07-10T05:31:03.267Z,77.7
2017-07-10T05:33:35.005Z,77.1
2017-07-10T05:36:06.795Z,77.1
2017-07-10T05:38:38.552Z,77.1
2017-07-10T05:41:10.351Z,76.0
2017-07-10T05:43:42.077Z,75.0
2017-07-10T05:46:13.882Z,74.2
2017-07-10T05:48:45.595Z,73.4
2017-07-10T05:51:17.353Z,72.4
2017-07-10T05:53:49.121Z,72.5
2017-07-10T05:56:20.862Z,72.2
2017-07-10T05:58:52.565Z,71.4
2017-07-10T06:01:24.455Z,72.0
2017-07-10T06:03:56.156Z,72.0
2017-07-10T06:06:27.943Z,71.8
2017-07-10T06:08:59.690Z,71.4
2017-07-10T06:11:31.607Z,71.5
2017-07-10T06:14:03.329Z,71.2
2017-07-10T06:16:35.097Z,70.9
2017-07-10T06:19:06.838Z,70.0
2017-07-10T06:21:38.574Z,71.0
2017-07-10T06:24:10.350Z,70.7
2017-07-10T06:26:42.236Z,70.9
2017-07-10T06:29:13.988Z,70.4
2017-07-10T06:31:45.770Z,69.9
2017-07-10T06:34:17.498Z,69.4
2017-07-10T06:36:49.283Z,69.1
2017-07-10T06:39:21.035Z,68.9
2017-07-10T06:41:52.796Z,69.2
2017-07-10T06:44:24.518Z,69.5
2017-07-10T06:46:56.265Z,69.0
2017-07-10T06:49:28.064Z,69.1
2017-07-10T06:51:59.847Z,69.0
2017-07-10T06:54:31.549Z,69.0
2017-07-10T06:57:03.337Z,69.1
2017-07-10T06:59:35.032Z,69.3
2017-07-10T07:02:06.759Z,68.6
2017-07-10T07:04:38.524Z,68.7
2017-07-10T07:07:10.265Z,68.8
2017-07-10T07:09:41.981Z,68.8
2017-07-10T07:12:13.771Z,68.4
2017-07-10T07:14:45.519Z,68.3
2017-07-10T07:17:17.278Z,68.5
2017-07-10T07:19:49.030Z,68.3
2017-07-10T07:22:20.822Z,67.9
2017-07-10T07:24:52.575Z,67.7
2017-07-10T07:27:24.354Z,68.2
2017-07-10T07:29:56.224Z,67.1
2017-07-10T07:32:28.043Z,67.1
2017-07-10T07:34:59.815Z,67.1
2017-07-10T07:37:31.703Z,67.4
2017-07-10T07:40:03.494Z,67.6
2017-07-10T07:42:35.256Z,67.6
2017-07-10T07:45:06.991Z,67.1
2017-07-10T07:47:38.770Z,67.5
2017-07-10T07:50:10.485Z,68.7
2017-07-10T07:52:42.259Z,68.7
2017-07-10T07:55:14.077Z,68.4
2017-07-10T07:57:45.870Z,69.1
2017-07-10T08:00:17.644Z,68.4
2017-07-10T08:02:49.455Z,67.3
2017-07-10T08:05:21.217Z,68.2
2017-07-10T08:07:52.988Z,68.0
2017-07-10T08:10:24.743Z,67.4
2017-07-10T08:12:56.539Z,68.1
2017-07-10T08:15:28.280Z,67.5
2017-07-10T08:18:00.101Z,66.2
2017-07-10T08:20:31.859Z,67.0
2017-07-10T08:23:03.650Z,67.2
2017-07-10T08:25:35.369Z,67.2
2017-07-10T08:28:07.123Z,67.2
2017-07-10T08:30:38.872Z,66.6
2017-07-10T08:33:10.642Z,66.6
2017-07-10T08:35:42.373Z,66.9
2017-07-10T08:38:14.131Z,66.4
2017-07-10T08:40:45.872Z,66.3
2017-07-10T08:43:17.648Z,65.8
2017-07-10T08:45:49.384Z,65.7
2017-07-10T08:48:21.186Z,65.2
2017-07-10T08:50:52.900Z,65.3
2017-07-10T08:53:24.683Z,65.6
2017-07-10T08:55:56.441Z,64.5
2017-07-10T08:58:28.258Z,64.6
2017-07-10T09:01:00.019Z,64.8
2017-07-10T09:03:31.798Z,64.9
2017-07-10T09:06:03.559Z,64.4
2017-07-10T09:08:35.340Z,64.9
2017-07-10T09:11:07.071Z,63.9
2017-07-10T09:13:38.878Z,64.4
2017-07-10T09:16:10.629Z,63.9
2017-07-10T09:18:42.407Z,63.9
2017-07-10T09:21:14.145Z,63.7
2017-07-10T09:23:45.931Z,63.7
2017-07-10T09:26:17.667Z,63.3
2017-07-10T09:28:49.424Z,63.2
2017-07-10T09:31:21.163Z,63.8
2017-07-10T09:33:52.927Z,63.6
2017-07-10T09:36:24.665Z,63.3
2017-07-10T09:38:56.467Z,63.6
2017-07-10T09:41:28.210Z,63.6
2017-07-10T09:43:59.985Z,63.2
2017-07-10T09:46:31.715Z,63.1
2017-07-10T09:49:03.507Z,63.8
2017-07-10T09:51:35.246Z,63.4
2017-07-10T09:54:07.008Z,63.4
2017-07-10T09:56:38.813Z,63.2
2017-07-10T09:59:10.565Z,63.7
2017-07-10T10:01:42.298Z,63.7
2017-07-10T10:04:14.082Z,63.6
2017-07-10T10:06:45.872Z,63.2
2017-07-10T10:09:17.659Z,63.3
2017-07-10T10:11:49.407Z,63.2
2017-07-10T10:14:21.189Z,63.7
2017-07-10T10:16:52.943Z,63.2
2017-07-10T10:19:24.718Z,63.1
2017-07-10T10:21:56.444Z,62.8
2017-07-10T10:24:28.246Z,62.8
2017-07-10T10:26:59.989Z,62.6
2017-07-10T10:29:31.766Z,62.6
2017-07-10T10:32:03.541Z,62.9
2017-07-10T10:34:35.313Z,62.9
2017-07-10T10:37:07.081Z,62.5
2017-07-10T10:39:38.858Z,62.3
2017-07-10T10:42:10.591Z,62.8
2017-07-10T10:44:42.381Z,62.1
2017-07-10T10:47:14.139Z,61.8
2017-07-10T10:49:45.946Z,61.9
2017-07-10T10:52:17.693Z,62.0
2017-07-10T10:54:49.465Z,62.2
2017-07-10T10:57:21.225Z,61.8
2017-07-10T10:59:53.031Z,62.1
2017-07-10T11:02:24.930Z,61.9
2017-07-10T11:04:56.713Z,62.1
2017-07-10T11:07:28.442Z,62.0
2017-07-10T11:10:00.281Z,61.7
2017-07-10T11:12:32.574Z,61.0
2017-07-10T11:15:04.364Z,61.7
2017-07-10T11:17:36.118Z,61.6
2017-07-10T11:20:07.889Z,62.2
2017-07-10T11:22:39.645Z,61.7
2017-07-10T11:25:11.436Z,62.0
2017-07-10T11:27:43.306Z,61.8
2017-07-10T11:30:15.104Z,62.1
2017-07-10T11:32:48.480Z,61.6
2017-07-10T11:35:20.300Z,62.0
2017-07-10T11:37:52.098Z,61.7
2017-07-10T11:40:23.851Z,61.7
2017-07-10T11:42:55.585Z,61.7
2017-07-10T11:45:27.384Z,62.2
2017-07-10T11:47:59.087Z,62.2
2017-07-10T11:50:30.880Z,62.9
2017-07-10T11:53:02.638Z,62.1
2017-07-10T11:55:34.546Z,62.0
2017-07-10T11:58:06.267Z,62.1
2017-07-10T12:00:38.055Z,62.0
2017-07-10T12:03:09.795Z,62.0
2017-07-10T12:05:41.583Z,62.1
2017-07-10T12:08:13.316Z,61.8
2017-07-10T12:10:45.184Z,62.0
2017-07-10T12:13:16.881Z,62.0
2017-07-10T12:15:48.682Z,61.6
2017-07-10T12:18:20.398Z,61.7
2017-07-10T12:20:52.206Z,61.7
2017-07-10T12:23:23.961Z,61.7
2017-07-10T12:25:55.783Z,61.5
2017-07-10T12:28:27.540Z,61.1
2017-07-10T12:30:59.322Z,61.0
2017-07-10T12:33:31.110Z,60.6
2017-07-10T12:36:02.881Z,60.6
2017-07-10T12:38:34.636Z,60.8
2017-07-10T12:41:06.464Z,61.0
2017-07-10T12:43:38.899Z,60.7
2017-07-10T12:46:10.664Z,60.8
2017-07-10T12:48:42.488Z,61.2
2017-07-10T12:51:14.301Z,61.0
2017-07-10T12:53:46.003Z,61.0
2017-07-10T12:56:17.828Z,61.1
2017-07-10T12:58:49.628Z,60.8
2017-07-10T13:01:21.423Z,60.6
2017-07-10T13:03:53.266Z,60.6
2017-07-10T13:06:25.047Z,60.6
2017-07-10T13:08:56.782Z,60.4
2017-07-10T13:11:28.635Z,60.7
2017-07-10T13:14:00.366Z,60.4
2017-07-10T13:16:32.157Z,60.7
2017-07-10T13:19:04.003Z,61.0
2017-07-10T13:21:35.768Z,60.8
2017-07-10T13:24:07.506Z,60.7
2017-07-10T13:26:39.338Z,60.6
2017-07-10T13:29:11.064Z,60.6
2017-07-10T13:31:42.843Z,60.8
2017-07-10T13:34:14.628Z,60.1
2017-07-10T13:36:46.415Z,60.6
2017-07-10T13:39:18.164Z,60.5
2017-07-10T13:41:49.984Z,60.7
2017-07-10T13:44:21.738Z,59.8
2017-07-10T13:46:53.504Z,59.3
2017-07-10T13:49:25.303Z,59.6
2017-07-10T13:51:57.091Z,59.3
2017-07-10T13:54:28.828Z,59.5
2017-07-10T13:57:00.633Z,59.8
2017-07-10T13:59:32.375Z,59.8
2017-07-10T14:02:04.205Z,59.3
2017-07-10T14:04:35.983Z,59.5
2017-07-10T14:07:07.801Z,58.8
2017-07-10T14:09:39.627Z,59.3
2017-07-10T14:12:11.428Z,59.9
2017-07-10T14:14:43.158Z,59.8
2017-07-10T14:17:14.953Z,59.6
2017-07-10T14:19:46.741Z,59.7
2017-07-10T14:22:18.514Z,59.3
2017-07-10T14:24:50.239Z,59.4
2017-07-10T14:27:22.044Z,59.1
2017-07-10T14:29:53.785Z,58.9
2017-07-10T14:32:25.568Z,57.4
2017-07-10T14:34:57.333Z,57.5
2017-07-10T14:37:29.107Z,57.4
2017-07-10T14:40:00.834Z,57.3
2017-07-10T14:42:32.655Z,57.7
2017-07-10T14:45:04.390Z,57.3
2017-07-10T14:47:36.182Z,57.1
2017-07-10T14:50:07.994Z,57.2
2017-07-10T14:52:40.486Z,56.9
2017-07-10T14:55:12.229Z,56.4
2017-07-10T14:57:44.026Z,56.6
2017-07-10T15:00:15.791Z,55.7
2017-07-10T15:02:47.575Z,56.6
2017-07-10T15:05:19.406Z,55.9
2017-07-10T15:07:51.234Z,55.4
2017-07-10T15:10:23.005Z,56.1
2017-07-10T15:12:54.850Z,55.6
2017-07-10T15:15:26.623Z,55.5
2017-07-10T15:17:58.393Z,55.4
2017-07-10T15:20:30.200Z,55.4
2017-07-10T15:23:01.978Z,55.4
2017-07-10T15:25:33.733Z,56.3
2017-07-10T15:28:05.673Z,55.9
2017-07-10T15:30:38.116Z,55.7
2017-07-10T15:33:09.910Z,57.1
2017-07-10T15:35:43.117Z,56.7
2017-07-10T15:38:15.104Z,57.7
2017-07-10T15:40:47.505Z,57.6
2017-07-10T15:43:20.298Z,57.4
2017-07-10T15:45:53.105Z,57.6
2017-07-10T15:48:24.872Z,57.4
2017-07-10T15:50:57.003Z,57.6
2017-07-10T15:53:28.810Z,57.3
2017-07-10T15:56:00.653Z,57.4
2017-07-10T15:58:33.440Z,57.6
2017-07-10T16:01:05.361Z,57.9
2017-07-10T16:03:37.143Z,58.1
2017-07-10T16:06:08.921Z,58.4
2017-07-10T16:08:40.751Z,57.3
2017-07-10T16:11:12.502Z,58.5
2017-07-10T16:13:44.317Z,58.7
2017-07-10T16:16:16.172Z,57.3
2017-07-10T16:18:47.944Z,57.4
2017-07-10T16:21:19.679Z,57.4
2017-07-10T16:23:51.508Z,55.8
2017-07-10T16:26:23.313Z,55.6
2017-07-10T16:28:55.077Z,55.6
2017-07-10T16:31:26.902Z,54.9
2017-07-10T16:33:58.782Z,53.8
2017-07-10T16:36:30.596Z,53.4
2017-07-10T16:39:02.495Z,52.4
2017-07-10T16:41:34.295Z,53.4
2017-07-10T16:44:06.137Z,53.9
2017-07-10T16:46:37.895Z,53.4
2017-07-10T16:49:09.704Z,53.8
2017-07-10T16:51:41.466Z,53.4
2017-07-10T16:54:13.313Z,53.1
2017-07-10T16:56:46.355Z,54.4
2017-07-10T16:59:18.967Z,54.9
2017-07-10T17:01:51.773Z,55.9
2017-07-10T17:04:23.568Z,56.2
2017-07-10T17:06:55.492Z,54.7
2017-07-10T17:09:27.271Z,54.9
2017-07-10T17:11:59.099Z,54.9
2017-07-10T17:14:30.872Z,55.2
2017-07-10T17:17:05.561Z,55.8
2017-07-10T17:19:37.466Z,54.5
2017-07-10T17:22:09.179Z,55.1
2017-07-10T17:24:41.063Z,54.6
2017-07-10T17:27:12.865Z,56.0
2017-07-10T17:29:45.919Z,55.3
2017-07-10T17:32:17.717Z,54.3
2017-07-10T17:34:49.674Z,54.3
2017-07-10T17:37:22.634Z,53.9
2017-07-10T17:39:55.317Z,54.4
2017-07-10T17:42:27.443Z,54.2
2017-07-10T17:45:05.088Z,54.3
2017-07-10T17:47:38.024Z,54.3
2017-07-10T17:50:12.312Z,55.1
2017-07-10T17:52:44.543Z,54.4
2017-07-10T17:55:23.409Z,54.5
2017-07-10T17:57:55.500Z,54.3
2017-07-10T18:00:27.255Z,54.6
2017-07-10T18:03:00.291Z,54.6
2017-07-10T18:05:34.641Z,54.2
2017-07-10T18:08:06.436Z,55.4
2017-07-10T18:10:38.707Z,54.7
2017-07-10T18:13:11.691Z,55.3
2017-07-10T18:15:45.730Z,55.3
2017-07-10T18:18:17.474Z,54.7
2017-07-10T18:20:49.392Z,55.7
2017-07-10T18:23:21.260Z,55.4
2017-07-10T18:25:53.059Z,55.3
2017-07-10T18:28:25.088Z,55.3
2017-07-10T18:30:57.023Z,55.1
2017-07-10T18:33:29.801Z,55.6
2017-07-10T18:36:01.611Z,55.9
2017-07-10T18:38:33.397Z,55.8
2017-07-10T18:41:05.268Z,56.0
2017-07-10T18:43:37.065Z,55.8
2017-07-10T18:46:09.297Z,55.7
2017-07-10T18:48:41.158Z,55.6
2017-07-10T18:51:13.014Z,56.1
2017-07-10T18:53:44.762Z,55.6
2017-07-10T18:56:16.815Z,55.8
2017-07-10T18:58:48.545Z,55.8
2017-07-10T19:01:20.352Z,55.5
2017-07-10T19:03:52.169Z,55.3
2017-07-10T19:06:24.725Z,55.5
2017-07-10T19:08:58.295Z,55.7
2017-07-10T19:11:30.216Z,54.9
2017-07-10T19:14:02.021Z,55.7
2017-07-10T19:16:33.852Z,55.9
2017-07-10T19:19:05.635Z,56.1
2017-07-10T19:21:37.393Z,55.9
2017-07-10T19:24:10.306Z,55.8
2017-07-10T19:26:42.129Z,55.8
2017-07-10T19:29:13.869Z,55.8
2017-07-10T19:31:45.627Z,55.5
2017-07-10T19:34:17.343Z,55.8
2017-07-10T19:36:49.127Z,55.9
2017-07-10T19:39:20.891Z,56.1
2017-07-10T19:41:53.088Z,56.3
2017-07-10T19:44:25.856Z,56.9
2017-07-10T19:46:57.950Z,56.7
2017-07-10T19:49:29.670Z,56.8
2017-07-10T19:52:01.432Z,56.6
2017-07-10T19:54:33.187Z,56.5
2017-07-10T19:57:04.928Z,56.5
2017-07-10T19:59:36.659Z,56.5
2017-07-10T20:02:08.398Z,56.6
2017-07-10T20:04:40.154Z,56.7
2017-07-10T20:07:11.927Z,56.8
2017-07-10T20:09:43.659Z,57.1
2017-07-10T20:12:15.427Z,57.0
2017-07-10T20:14:47.159Z,57.4
2017-07-10T20:17:18.929Z,57.5
2017-07-10T20:19:50.666Z,56.9
2017-07-10T20:22:23.747Z,57.3
2017-07-10T20:24:55.523Z,57.5
2017-07-10T20:27:27.369Z,57.5
2017-07-10T20:29:59.089Z,58.6
2017-07-10T20:32:30.867Z,57.4
2017-07-10T20:35:02.585Z,58.3
2017-07-10T20:37:34.352Z,58.1
2017-07-10T20:40:06.082Z,57.3
2017-07-10T20:42:37.854Z,57.5
2017-07-10T20:45:09.587Z,57.3
2017-07-10T20:47:41.386Z,57.3
2017-07-10T20:50:13.129Z,57.3
2017-07-10T20:52:44.908Z,57.3
2017-07-10T20:55:16.630Z,57.3
2017-07-10T20:57:48.411Z,57.5
2017-07-10T21:00:20.134Z,57.4
2017-07-10T21:02:51.864Z,57.3
2017-07-10T21:05:23.586Z,57.2
2017-07-10T21:07:55.376Z,57.7
2017-07-10T21:10:27.653Z,57.6
2017-07-10T21:12:59.413Z,57.5
2017-07-10T21:15:31.148Z,58.1
2017-07-10T21:18:02.910Z,58.1
2017-07-10T21:20:34.665Z,58.2
2017-07-10T21:23:06.452Z,58.2
2017-07-10T21:25:38.187Z,58.2
2017-07-10T21:28:09.956Z,58.0
2017-07-10T21:30:41.710Z,58.0
2017-07-10T21:33:13.441Z,57.8
2017-07-10T21:35:45.137Z,58.2
2017-07-10T21:38:16.920Z,58.3
2017-07-10T21:40:48.615Z,58.7
2017-07-10T21:43:20.346Z,58.2
2017-07-10T21:45:52.076Z,58.8
2017-07-10T21:48:23.851Z,58.5
2017-07-10T21:50:55.605Z,58.6
2017-07-10T21:53:27.425Z,58.7
2017-07-10T21:55:59.167Z,59.0
2017-07-10T21:58:30.935Z,58.5
2017-07-10T22:01:02.711Z,58.5
2017-07-10T22:03:34.480Z,58.6
2017-07-10T22:06:06.222Z,58.8
2017-07-10T22:08:38.759Z,59.7
2017-07-10T22:11:10.488Z,59.3
2017-07-10T22:13:42.246Z,59.8
2017-07-10T22:16:14.003Z,59.1
2017-07-10T22:18:45.794Z,59.4
2017-07-10T22:21:17.520Z,59.8
2017-07-10T22:23:49.305Z,59.8
2017-07-10T22:26:21.036Z,59.6
2017-07-10T22:28:52.802Z,59.9
2017-07-10T22:31:24.530Z,59.7
2017-07-10T22:33:56.280Z,59.6
2017-07-10T22:36:27.967Z,59.8
2017-07-10T22:38:59.735Z,60.4
2017-07-10T22:41:31.425Z,60.1
2017-07-10T22:44:03.152Z,59.9
2017-07-10T22:46:34.916Z,60.3
2017-07-10T22:49:06.671Z,60.5
2017-07-10T22:51:38.418Z,60.4
2017-07-10T22:54:10.186Z,60.3
2017-07-10T22:56:41.910Z,60.5
2017-07-10T22:59:13.675Z,60.9
2017-07-10T23:01:45.453Z,60.8
2017-07-10T23:04:17.202Z,60.8
2017-07-10T23:06:48.942Z,61.1
2017-07-10T23:09:20.763Z,60.6
2017-07-10T23:11:52.490Z,61.1
2017-07-10T23:14:24.261Z,60.9
2017-07-10T23:16:55.979Z,61.1
2017-07-10T23:19:27.747Z,60.8
2017-07-10T23:21:59.482Z,61.5
2017-07-10T23:24:31.246Z,61.1
2017-07-10T23:27:02.976Z,60.6
2017-07-10T23:29:34.753Z,61.5
2017-07-10T23:32:06.448Z,60.9
2017-07-10T23:34:38.189Z,60.7
2017-07-10T23:37:09.884Z,60.8
2017-07-10T23:39:41.631Z,61.3
2017-07-10T23:42:13.324Z,61.6
2017-07-10T23:44:45.049Z,60.8
2017-07-10T23:47:16.777Z,60.9
2017-07-10T23:49:48.521Z,61.3
2017-07-10T23:52:20.254Z,61.4
2017-07-10T23:54:51.995Z,61.3
2017-07-10T23:57:23.749Z,61.3
2017-07-10T23:59:55.575Z,60.9
